Time;durP1;ratioP1;P1;durP2;ratioP2;P2;SDS_P1;SDS_P2;PMS_P1;PMS_P2;Temp;Humidity;BMP_temperature;BMP_pressure;BME280_temperature;BME280_humidity;BME280_pressure;Samples;Min_cycle;Max_cycle;Signal;HPM_P1;HPM_P2
2021/07/13 00:01:15;;;;;;;9.73;5.28;;;;;;;21.49;44.94;93895.09;5089624;28;20407;-72
2021/07/13 00:03:40;;;;;;;10.32;5.53;;;;;;;21.47;44.93;93891.22;5071547;28;20035;-71
2021/07/13 00:06:05;;;;;;;8.93;5.00;;;;;;;21.48;45.06;93895.50;5071677;28;20028;-71
2021/07/13 00:08:31;;;;;;;11.88;5.65;;;;;;;21.42;45.45;93904.00;5070516;28;20498;-71
2021/07/13 00:10:56;;;;;;;16.25;5.75;;;;;;;21.36;45.06;93897.34;5090071;28;20130;-71
2021/07/13 00:13:22;;;;;;;7.50;5.03;;;;;;;21.27;45.29;93902.38;5071204;28;20494;-71
2021/07/13 00:15:47;;;;;;;10.13;5.50;;;;;;;21.22;45.49;93900.78;5089491;28;20038;-71
2021/07/13 00:18:13;;;;;;;7.22;5.07;;;;;;;21.21;45.52;93909.31;5089736;28;20124;-71
2021/07/13 00:20:39;;;;;;;8.25;5.38;;;;;;;21.21;45.76;93904.66;5089503;28;20414;-71
2021/07/13 00:23:04;;;;;;;9.57;5.30;;;;;;;21.24;45.89;93903.88;5089800;28;20479;-71
2021/07/13 00:25:31;;;;;;;13.32;5.43;;;;;;;21.23;45.84;93912.41;5089720;28;20495;-71
2021/07/13 00:27:57;;;;;;;10.27;5.28;;;;;;;21.17;46.35;93919.34;5089678;28;20020;-71
2021/07/13 00:30:24;;;;;;;7.47;5.05;;;;;;;21.09;46.42;93917.75;5089357;28;20066;-72
2021/07/13 00:32:50;;;;;;;13.82;5.65;;;;;;;21.06;46.75;93921.97;5089580;28;20471;-71
2021/07/13 00:35:16;;;;;;;10.13;5.47;;;;;;;21.06;47.32;93926.63;5089567;28;20093;-71
2021/07/13 00:37:42;;;;;;;11.60;4.65;;;;;;;21.08;47.32;93918.91;5087152;28;20024;-71
2021/07/13 00:40:10;;;;;;;8.70;5.63;;;;;;;21.10;47.81;93927.41;5089567;28;20055;-72
2021/07/13 00:42:35;;;;;;;13.82;5.55;;;;;;;21.08;47.91;93927.78;5089325;28;20020;-72
2021/07/13 00:45:01;;;;;;;14.43;5.40;;;;;;;21.06;48.05;93915.78;5089623;28;20380;-71
2021/07/13 00:47:27;;;;;;;8.18;5.05;;;;;;;21.04;48.20;93927.78;5093353;28;20035;-71
2021/07/13 00:49:53;;;;;;;9.07;5.78;;;;;;;20.98;48.07;93918.44;5091798;28;20019;-71
2021/07/13 00:52:19;;;;;;;8.63;5.80;;;;;;;20.95;48.30;93921.91;5093310;28;20486;-71
2021/07/13 00:54:48;;;;;;;9.00;5.13;;;;;;;20.96;48.53;93928.09;5092892;28;20024;-72
2021/07/13 00:57:15;;;;;;;6.60;4.85;;;;;;;20.94;48.48;93920.34;5091803;28;20103;-71
2021/07/13 00:59:41;;;;;;;11.77;4.80;;;;;;;20.90;48.45;93924.97;5092901;28;20024;-71
2021/07/13 01:02:13;;;;;;;7.47;5.43;;;;;;;20.88;48.42;93924.56;5093122;28;20102;-71
2021/07/13 01:04:42;;;;;;;10.90;5.38;;;;;;;20.87;48.46;93914.91;5092858;28;20023;-72
2021/07/13 01:07:11;;;;;;;11.27;5.57;;;;;;;20.78;49.23;93919.84;5092902;28;20032;-72
2021/07/13 01:10:00;;;;;;;9.65;5.13;;;;;;;20.77;49.61;93918.31;5092893;28;20467;-74
2021/07/13 01:12:35;;;;;;;7.13;4.78;;;;;;;20.70;49.74;93907.41;5089384;28;20023;-72
2021/07/13 01:15:05;;;;;;;7.40;4.95;;;;;;;20.65;49.59;93908.53;5091108;28;20391;-71
2021/07/13 01:17:51;;;;;;;7.53;5.18;;;;;;;20.64;49.40;93905.06;5092789;28;20080;-71
2021/07/13 01:20:32;;;;;;;7.60;5.32;;;;;;;20.58;49.81;93911.97;5092786;28;20391;-71
2021/07/13 01:23:12;;;;;;;6.65;4.97;;;;;;;20.56;49.84;93905.38;5092619;28;20027;-71
2021/07/13 01:25:58;;;;;;;8.25;4.95;;;;;;;20.54;50.31;93911.16;5092710;28;20028;-71
2021/07/13 01:28:28;;;;;;;10.13;5.50;;;;;;;20.51;50.40;93916.53;5092686;28;20035;-72
2021/07/13 01:31:05;;;;;;;11.77;5.28;;;;;;;20.46;50.56;93914.94;5081950;28;20456;-72
2021/07/13 01:33:31;;;;;;;10.70;5.40;;;;;;;20.43;50.89;93919.19;5074440;28;20024;-71
2021/07/13 01:36:05;;;;;;;7.22;4.90;;;;;;;20.41;50.86;93912.56;5073833;28;20447;-72
2021/07/13 01:38:34;;;;;;;9.00;5.15;;;;;;;20.36;51.28;93923.75;5071089;28;20032;-72
2021/07/13 01:41:07;;;;;;;10.38;6.65;;;;;;;20.30;51.38;93928.72;5073930;28;20023;-71
2021/07/13 01:43:36;;;;;;;7.75;5.18;;;;;;;20.31;51.15;93929.50;5087821;28;20399;-72
2021/07/13 01:46:02;;;;;;;11.25;5.88;;;;;;;20.28;51.47;93930.25;5091901;28;20054;-71
2021/07/13 01:48:30;;;;;;;11.90;6.03;;;;;;;20.24;51.78;93930.22;5092372;28;20051;-71
2021/07/13 01:50:57;;;;;;;9.07;5.78;;;;;;;20.20;50.78;93932.88;5072531;28;20035;-72
2021/07/13 01:53:23;;;;;;;11.60;5.63;;;;;;;20.20;50.01;93935.59;5072619;28;20720;-71
2021/07/13 01:55:50;;;;;;;8.52;5.45;;;;;;;20.17;49.80;93930.94;5088204;28;20024;-71
2021/07/13 01:58:18;;;;;;;7.45;5.25;;;;;;;20.16;49.24;93926.66;5073346;28;20031;-71
2021/07/13 02:00:44;;;;;;;8.27;5.53;;;;;;;20.16;49.46;93928.59;5091919;28;20089;-71
2021/07/13 02:03:11;;;;;;;6.97;4.88;;;;;;;20.06;48.90;93924.63;5091781;28;20107;-71
2021/07/13 02:05:38;;;;;;;8.85;4.85;;;;;;;20.00;48.98;93918.78;5073432;28;20092;-71
2021/07/13 02:08:06;;;;;;;7.55;5.03;;;;;;;19.95;49.58;93910.25;5091503;28;20067;-71
2021/07/13 02:10:33;;;;;;;9.25;5.22;;;;;;;19.96;50.59;93919.91;5092138;28;20024;-71
2021/07/13 02:12:58;;;;;;;7.95;5.55;;;;;;;19.98;49.92;93915.66;5091460;28;20038;-72
2021/07/13 02:15:24;;;;;;;8.55;5.25;;;;;;;20.01;51.16;93916.88;5073447;28;20482;-71
2021/07/13 02:17:51;;;;;;;11.85;5.70;;;;;;;19.99;51.52;93921.88;5091693;28;20020;-71
2021/07/13 02:20:19;;;;;;;8.73;5.50;;;;;;;19.98;51.23;93923.00;5091489;28;20031;-71
2021/07/13 02:22:45;;;;;;;7.85;5.30;;;;;;;19.98;51.78;93928.41;5092090;28;20024;-71
2021/07/13 02:25:12;;;;;;;10.45;5.78;;;;;;;19.97;51.45;93916.81;5091249;28;20560;-72
2021/07/13 02:27:45;;;;;;;8.88;6.50;;;;;;;19.92;51.91;93919.09;5091326;28;20020;-72
2021/07/13 02:30:11;;;;;;;8.68;5.10;;;;;;;19.88;52.01;93912.84;5072191;28;20028;-72
2021/07/13 02:32:57;;;;;;;13.07;6.20;;;;;;;19.80;52.31;93914.69;5091267;28;20191;-72
2021/07/13 02:35:34;;;;;;;10.00;5.30;;;;;;;19.77;52.33;93916.22;5072226;28;20024;-72
2021/07/13 02:38:01;;;;;;;10.07;5.35;;;;;;;19.74;52.17;93916.97;5073081;28;20394;-72
2021/07/13 02:40:27;;;;;;;8.50;5.90;;;;;;;19.71;52.29;93917.69;5091062;28;20103;-72
2021/07/13 02:42:53;;;;;;;8.18;5.03;;;;;;;19.66;52.33;93918.00;5086551;28;20048;-72
2021/07/13 02:45:20;;;;;;;7.78;4.78;;;;;;;19.71;52.45;93919.63;5072337;28;20034;-72
2021/07/13 02:47:48;;;;;;;10.23;6.40;;;;;;;19.67;51.95;93916.09;5091153;28;20016;-72
2021/07/13 02:50:16;;;;;;;9.15;5.80;;;;;;;19.66;52.21;93912.59;5071170;28;20024;-72
2021/07/13 02:52:42;;;;;;;10.77;5.93;;;;;;;19.68;52.65;93923.03;5072541;28;20147;-72
2021/07/13 02:55:13;;;;;;;10.35;6.07;;;;;;;19.67;52.57;93918.78;5070647;28;20031;-72
2021/07/13 02:57:39;;;;;;;8.95;6.18;;;;;;;19.66;52.98;93918.00;5070409;28;20119;-72
2021/07/13 03:00:08;;;;;;;12.13;5.20;;;;;;;19.67;53.13;93913.38;5069683;28;20070;-71
2021/07/13 03:02:35;;;;;;;8.80;5.65;;;;;;;19.68;53.34;93920.34;5072433;28;20052;-72
2021/07/13 03:05:01;;;;;;;8.45;5.93;;;;;;;19.64;53.19;93915.69;5086151;28;20468;-71
2021/07/13 03:07:27;;;;;;;8.80;5.47;;;;;;;19.67;53.09;93918.78;5089479;28;20110;-77
2021/07/13 03:09:53;;;;;;;9.95;5.93;;;;;;;19.65;52.91;93916.44;5091075;28;20117;-77
2021/07/13 03:12:19;;;;;;;9.57;6.32;;;;;;;19.65;53.15;93922.63;5072522;28;20123;-77
2021/07/13 03:14:46;;;;;;;10.82;6.55;;;;;;;19.68;53.22;93923.81;5090791;28;20063;-77
2021/07/13 03:17:17;;;;;;;11.07;6.43;;;;;;;19.69;53.13;93921.91;5069472;28;20033;-77
2021/07/13 03:19:43;;;;;;;11.38;5.97;;;;;;;19.71;53.23;93920.41;5090489;28;20020;-78
2021/07/13 03:22:17;;;;;;;14.88;6.47;;;;;;;19.73;53.58;93923.53;5069223;28;20031;-77
2021/07/13 03:24:43;;;;;;;9.77;6.82;;;;;;;19.75;53.25;93923.94;5090009;28;20027;-77
2021/07/13 03:27:09;;;;;;;10.77;6.00;;;;;;;19.79;53.12;93924.75;5091006;28;20205;-78
2021/07/13 03:29:37;;;;;;;11.88;7.05;;;;;;;19.82;52.50;93920.50;5090319;28;20071;-77
2021/07/13 03:32:03;;;;;;;10.32;6.25;;;;;;;19.88;51.68;93929.09;5071716;28;20478;-78
2021/07/13 03:34:28;;;;;;;16.95;6.63;;;;;;;19.92;52.85;93930.66;5075436;28;20036;-78
2021/07/13 03:36:55;;;;;;;9.95;6.53;;;;;;;19.95;52.61;93927.25;5090660;28;20217;-78
2021/07/13 03:39:20;;;;;;;15.60;6.45;;;;;;;19.99;51.88;93919.16;5076711;28;20028;-78
2021/07/13 03:41:48;;;;;;;13.48;6.38;;;;;;;20.03;52.18;93922.69;5090577;28;20111;-77
2021/07/13 03:44:14;;;;;;;12.60;6.15;;;;;;;20.07;53.34;93928.91;5090686;28;20106;-78
2021/07/13 03:46:39;;;;;;;10.75;6.40;;;;;;;20.11;53.30;93924.31;5089946;28;20032;-77
2021/07/13 03:49:06;;;;;;;12.20;6.60;;;;;;;20.14;52.93;93926.25;5089233;28;20145;-77
2021/07/13 03:51:46;;;;;;;9.38;6.28;;;;;;;20.21;53.16;93920.94;5090221;28;20048;-77
2021/07/13 03:54:14;;;;;;;8.73;6.28;;;;;;;20.27;51.69;93923.28;5071677;28;20194;-78
2021/07/13 03:56:40;;;;;;;9.95;6.13;;;;;;;20.29;51.61;93926.38;5072509;28;20031;-77
2021/07/13 03:59:07;;;;;;;11.07;6.70;;;;;;;20.23;52.26;93940.28;5072913;28;20114;-78
2021/07/13 04:01:33;;;;;;;11.82;6.88;;;;;;;20.27;52.01;93926.75;5090413;28;20579;-71
2021/07/13 04:03:59;;;;;;;10.13;7.20;;;;;;;20.33;52.19;93929.91;5071565;28;20115;-72
2021/07/13 04:06:24;;;;;;;11.48;6.80;;;;;;;20.39;52.73;93921.09;5071722;28;20498;-72
2021/07/13 04:08:50;;;;;;;10.68;6.55;;;;;;;20.45;52.14;93926.91;5089900;28;20028;-72
2021/07/13 04:11:16;;;;;;;10.75;7.00;;;;;;;20.44;52.00;93920.72;5072670;28;20022;-72
2021/07/13 04:13:41;;;;;;;11.80;6.80;;;;;;;20.46;52.53;93931.19;5072322;28;20028;-72
2021/07/13 04:16:08;;;;;;;13.02;7.43;;;;;;;20.49;53.27;93926.97;5072552;28;20047;-72
2021/07/13 04:18:33;;;;;;;17.60;7.80;;;;;;;20.54;53.77;93921.97;5091026;28;20024;-72
2021/07/13 04:20:59;;;;;;;19.27;7.70;;;;;;;20.58;54.13;93922.00;5093193;28;20433;-72
2021/07/13 04:23:24;;;;;;;12.82;7.65;;;;;;;20.62;54.42;93920.16;5093923;28;20067;-72
2021/07/13 04:25:50;;;;;;;13.73;7.40;;;;;;;20.67;55.12;93919.00;5093617;28;20066;-72
2021/07/13 04:28:15;;;;;;;12.30;7.60;;;;;;;20.70;53.78;93919.03;5093885;28;20047;-72
2021/07/13 04:30:40;;;;;;;13.32;7.85;;;;;;;20.73;53.61;93918.28;5089669;28;20047;-72
2021/07/13 04:33:06;;;;;;;15.75;8.65;;;;;;;20.79;52.75;93921.41;5093526;28;20111;-72
2021/07/13 04:35:31;;;;;;;21.48;8.90;;;;;;;20.85;52.30;93917.22;5075145;28;20538;-72
2021/07/13 04:37:57;;;;;;;16.50;9.98;;;;;;;20.90;51.71;93922.25;5093712;28;20035;-72
2021/07/13 04:40:23;;;;;;;15.43;8.27;;;;;;;20.92;52.16;93924.59;5073847;28;20025;-72
2021/07/13 04:42:49;;;;;;;19.98;7.32;;;;;;;20.87;52.75;93916.84;5093501;28;20085;-72
2021/07/13 04:45:14;;;;;;;15.65;7.95;;;;;;;20.90;51.71;93922.25;5091710;28;20058;-72
2021/07/13 04:47:40;;;;;;;14.88;8.05;;;;;;;20.94;51.95;93909.50;5092160;28;20495;-72
2021/07/13 04:50:08;;;;;;;25.30;7.70;;;;;;;20.98;52.63;93914.97;5093059;28;20115;-72
2021/07/13 04:52:33;;;;;;;13.32;7.78;;;;;;;20.99;51.94;93914.59;5093210;28;20044;-72
2021/07/13 04:55:00;;;;;;;11.55;8.05;;;;;;;21.01;51.95;93920.41;5092952;28;20110;-73
2021/07/13 04:57:26;;;;;;;17.88;8.35;;;;;;;21.00;51.39;93918.06;5093232;28;20035;-72
2021/07/13 04:59:51;;;;;;;15.23;8.30;;;;;;;21.02;51.13;93910.34;5074774;28;20027;-72
2021/07/13 05:02:18;;;;;;;12.23;7.53;;;;;;;21.05;51.10;93915.00;5083242;28;20035;-72
2021/07/13 05:04:43;;;;;;;21.08;8.50;;;;;;;21.08;51.73;93913.47;5093188;28;20024;-72
2021/07/13 05:07:09;;;;;;;16.70;8.98;;;;;;;21.08;51.78;93913.47;5092654;28;20028;-72
2021/07/13 05:09:34;;;;;;;10.57;7.47;;;;;;;21.08;51.63;93918.91;5092953;28;20040;-72
2021/07/13 05:11:59;;;;;;;14.40;8.73;;;;;;;21.13;51.21;93921.25;5093049;28;20036;-72
2021/07/13 05:14:25;;;;;;;23.67;9.43;;;;;;;21.19;51.15;93923.22;5074421;28;20135;-72
2021/07/13 05:16:50;;;;;;;25.27;8.70;;;;;;;21.23;52.14;93923.25;5093007;28;20036;-72
2021/07/13 05:19:16;;;;;;;24.60;9.32;;;;;;;21.27;51.00;93910.50;5092348;28;20442;-72
2021/07/13 05:21:48;;;;;;;15.45;8.88;;;;;;;21.34;50.81;93917.88;5093666;28;20066;-71
2021/07/13 05:24:13;;;;;;;14.23;8.75;;;;;;;21.39;51.32;93909.38;5092550;28;20487;-72
2021/07/13 05:26:39;;;;;;;16.20;10.15;;;;;;;21.45;51.48;93913.28;5092713;28;20035;-72
2021/07/13 05:29:06;;;;;;;17.02;9.75;;;;;;;21.56;50.67;93914.13;5092656;28;20465;-74
2021/07/13 05:31:32;;;;;;;19.02;9.43;;;;;;;21.60;50.62;93919.56;5091749;28;20016;-74
2021/07/13 05:33:57;;;;;;;17.83;9.52;;;;;;;21.67;51.20;93916.88;5092715;28;20024;-74
2021/07/13 05:36:26;;;;;;;23.38;9.85;;;;;;;21.77;49.70;93918.06;5092320;28;20023;-75
2021/07/13 05:38:55;;;;;;;11.88;8.88;;;;;;;21.79;49.46;93911.09;5073968;28;20455;-72
2021/07/13 05:41:22;;;;;;;13.57;8.40;;;;;;;21.86;49.61;93913.09;5091918;28;20089;-72
2021/07/13 05:43:49;;;;;;;13.18;8.40;;;;;;;21.92;49.87;93921.59;5092188;28;20360;-71
2021/07/13 05:46:15;;;;;;;16.17;8.60;;;;;;;21.90;49.41;93922.00;5091786;28;20503;-72
2021/07/13 05:48:41;;;;;;;12.15;8.77;;;;;;;21.86;49.19;93921.22;5092110;28;20032;-72
2021/07/13 05:51:06;;;;;;;21.75;8.50;;;;;;;21.93;49.91;93923.94;5071098;28;20055;-72
2021/07/13 05:53:33;;;;;;;16.30;8.65;;;;;;;22.00;49.45;93925.88;5091730;28;20032;-72
2021/07/13 05:55:58;;;;;;;10.93;7.85;;;;;;;22.09;49.29;93926.31;5091950;28;20020;-78
2021/07/13 05:58:24;;;;;;;15.20;8.32;;;;;;;22.19;49.90;93922.84;5089669;28;20086;-77
2021/07/13 06:00:49;;;;;;;21.50;7.63;;;;;;;22.28;49.28;93924.44;5091848;28;20051;-78
2021/07/13 06:03:15;;;;;;;15.95;8.73;;;;;;;22.39;48.21;93930.66;5088143;28;20043;-79
2021/07/13 06:05:40;;;;;;;21.67;8.18;;;;;;;22.41;48.18;93928.34;5091038;28;20020;-79
2021/07/13 06:08:06;;;;;;;24.15;9.20;;;;;;;22.58;48.85;93915.91;5073338;28;20081;-79
2021/07/13 06:10:31;;;;;;;20.00;7.80;;;;;;;22.72;48.92;93917.88;5092166;28;20172;-79
2021/07/13 06:12:57;;;;;;;18.38;8.27;;;;;;;22.76;49.01;93918.63;5092871;28;20031;-80
2021/07/13 06:15:22;;;;;;;21.55;8.73;;;;;;;22.81;48.83;93921.72;5091541;28;20053;-79
2021/07/13 06:17:48;;;;;;;23.25;8.65;;;;;;;22.98;47.74;93922.13;5087969;28;20024;-80
2021/07/13 06:20:14;;;;;;;23.25;8.45;;;;;;;23.03;47.03;93908.16;5070195;28;20063;-78
2021/07/13 06:22:40;;;;;;;21.25;8.52;;;;;;;23.10;48.41;93912.78;5072136;28;20047;-78
2021/07/13 06:25:07;;;;;;;20.05;9.13;;;;;;;23.21;47.83;93910.84;5091414;28;20156;-78
2021/07/13 06:27:33;;;;;;;17.67;8.95;;;;;;;23.32;47.53;93917.00;5091227;28;20035;-78
2021/07/13 06:29:58;;;;;;;24.08;10.20;;;;;;;23.44;47.50;93919.28;5091648;28;20024;-79
2021/07/13 06:32:24;;;;;;;21.55;9.05;;;;;;;23.57;47.31;93921.59;5091630;28;20035;-79
2021/07/13 06:34:49;;;;;;;19.92;8.57;;;;;;;23.71;47.17;93923.47;5091355;28;20032;-72
2021/07/13 06:37:14;;;;;;;23.33;8.10;;;;;;;23.80;45.90;93921.91;5091394;28;20174;-72
2021/07/13 06:39:40;;;;;;;10.65;7.32;;;;;;;23.94;45.44;93925.75;5090687;28;20035;-73
2021/07/13 06:42:05;;;;;;;18.08;8.10;;;;;;;24.06;44.57;93922.56;5090555;28;20027;-73
2021/07/13 06:44:31;;;;;;;13.20;7.72;;;;;;;24.06;44.31;93928.03;5090033;28;20031;-77
2021/07/13 06:46:56;;;;;;;15.40;8.65;;;;;;;24.17;44.82;93922.50;5091921;28;20067;-77
2021/07/13 06:49:21;;;;;;;17.98;7.90;;;;;;;24.20;43.88;93925.22;5092263;28;20475;-76
2021/07/13 06:51:47;;;;;;;10.60;7.68;;;;;;;24.12;44.78;93936.53;5072537;28;20048;-71
2021/07/13 06:54:12;;;;;;;20.38;7.65;;;;;;;24.04;44.60;93933.09;5091136;28;20024;-71
2021/07/13 06:56:38;;;;;;;23.35;7.85;;;;;;;24.15;44.67;93928.34;5091076;28;20544;-71
2021/07/13 06:59:03;;;;;;;29.65;7.50;;;;;;;24.22;44.36;93924.78;5091272;28;20024;-71
2021/07/13 07:01:29;;;;;;;15.65;7.28;;;;;;;24.27;44.70;93923.63;5091288;28;20368;-70
2021/07/13 07:03:54;;;;;;;11.15;7.50;;;;;;;24.33;44.16;93922.03;5090861;28;20099;-70
2021/07/13 07:06:19;;;;;;;15.40;7.15;;;;;;;24.42;44.01;93922.34;5090888;28;20010;-70
2021/07/13 07:08:45;;;;;;;18.77;6.88;;;;;;;24.42;42.60;93917.69;5089394;28;20475;-71
2021/07/13 07:11:11;;;;;;;12.25;7.57;;;;;;;24.49;42.39;93921.53;5070442;28;20035;-69
2021/07/13 07:13:37;;;;;;;12.05;7.00;;;;;;;24.55;43.75;93920.72;5091071;28;20031;-70
2021/07/13 07:16:03;;;;;;;23.15;7.95;;;;;;;24.54;43.30;93905.53;5090834;28;20168;-70
2021/07/13 07:18:28;;;;;;;16.27;7.95;;;;;;;24.65;44.68;93912.84;5091103;28;20016;-69
2021/07/13 07:20:53;;;;;;;12.88;7.28;;;;;;;24.74;44.82;93907.72;5090439;28;20059;-70
2021/07/13 07:23:19;;;;;;;21.85;7.63;;;;;;;24.79;44.52;93901.84;5072463;28;20107;-69
2021/07/13 07:25:44;;;;;;;14.82;7.93;;;;;;;24.95;43.52;93902.09;5090612;28;20035;-69
2021/07/13 07:28:11;;;;;;;17.58;8.25;;;;;;;25.05;43.42;93889.53;5090509;28;20030;-70
2021/07/13 07:30:37;;;;;;;17.50;6.97;;;;;;;25.17;43.47;93893.69;5090993;28;20024;-69
2021/07/13 07:33:03;;;;;;;17.70;8.77;;;;;;;25.29;42.95;93895.94;5088993;28;20027;-70
2021/07/13 07:35:29;;;;;;;13.73;8.60;;;;;;;25.42;42.58;93893.44;5090776;28;20020;-70
2021/07/13 07:37:54;;;;;;;13.55;7.40;;;;;;;25.55;41.47;93891.75;5072417;28;20020;-69
2021/07/13 07:40:21;;;;;;;25.23;8.35;;;;;;;25.66;41.27;93891.59;5069580;28;20042;-69
2021/07/13 07:42:52;;;;;;;18.90;6.97;;;;;;;25.73;40.54;93888.03;5090820;28;20479;-70
2021/07/13 07:45:20;;;;;;;21.43;8.40;;;;;;;25.68;40.29;93872.88;5089706;28;20036;-70
2021/07/13 07:47:46;;;;;;;13.88;6.90;;;;;;;25.74;40.02;93886.84;5089174;28;20055;-70
2021/07/13 07:50:13;;;;;;;13.00;7.57;;;;;;;25.88;39.51;93880.44;5090203;28;20034;-70
2021/07/13 07:52:39;;;;;;;13.13;7.05;;;;;;;25.93;39.02;93883.50;5090136;28;20048;-71
2021/07/13 07:55:06;;;;;;;16.35;7.70;;;;;;;26.05;38.92;93884.13;5070066;28;20038;-69
2021/07/13 07:57:31;;;;;;;13.07;7.35;;;;;;;26.15;39.50;93883.97;5072228;28;20020;-69
2021/07/13 07:59:57;;;;;;;13.60;7.53;;;;;;;26.12;40.19;93882.06;5090381;28;20028;-70
2021/07/13 08:02:22;;;;;;;14.38;8.45;;;;;;;26.20;39.56;93882.75;5090161;28;20039;-69
2021/07/13 08:04:48;;;;;;;10.68;7.50;;;;;;;26.21;39.67;93874.13;5090285;28;20380;-69
2021/07/13 08:07:13;;;;;;;16.67;8.95;;;;;;;26.26;40.53;93874.88;5089869;28;20024;-69
2021/07/13 08:09:38;;;;;;;18.92;9.27;;;;;;;26.29;40.71;93895.88;5090362;28;20081;-70
2021/07/13 08:12:04;;;;;;;12.13;7.35;;;;;;;26.36;40.20;93893.06;5072082;28;20032;-69
2021/07/13 08:14:30;;;;;;;12.55;8.30;;;;;;;26.52;40.41;93884.19;5089957;28;20028;-71
2021/07/13 08:16:56;;;;;;;16.63;8.25;;;;;;;26.61;39.77;93888.00;5072118;28;20020;-71
2021/07/13 08:19:22;;;;;;;12.57;7.60;;;;;;;26.71;39.06;93894.47;5088498;28;20028;-70
2021/07/13 08:21:48;;;;;;;9.77;7.90;;;;;;;26.64;38.05;93893.81;5071632;28;20028;-69
2021/07/13 08:24:13;;;;;;;17.25;7.53;;;;;;;26.68;37.81;93887.09;5089586;28;20031;-69
2021/07/13 08:26:39;;;;;;;11.20;7.55;;;;;;;26.78;37.52;93890.84;5071785;28;20484;-69
2021/07/13 08:29:06;;;;;;;23.70;8.65;;;;;;;26.93;38.08;93886.69;5071801;28;20031;-70
2021/07/13 08:31:31;;;;;;;13.07;7.85;;;;;;;27.07;37.92;93890.34;5090008;28;20055;-71
2021/07/13 08:33:57;;;;;;;17.33;7.72;;;;;;;27.17;37.83;93889.38;5071954;28;20059;-69
2021/07/13 08:36:22;;;;;;;18.00;8.23;;;;;;;27.25;37.12;93882.63;5089354;28;20127;-69
2021/07/13 08:38:48;;;;;;;10.27;6.93;;;;;;;27.36;37.16;93880.47;5089938;28;20542;-69
2021/07/13 08:41:13;;;;;;;18.83;7.72;;;;;;;27.47;36.69;93874.78;5089926;28;20053;-69
2021/07/13 08:43:40;;;;;;;22.95;8.48;;;;;;;27.60;36.23;93872.19;5089944;28;20028;-71
2021/07/13 08:46:06;;;;;;;15.70;7.90;;;;;;;27.73;35.69;93873.06;5089942;28;20488;-70
2021/07/13 08:48:32;;;;;;;18.65;7.05;;;;;;;27.83;33.64;93873.28;5089617;28;20110;-71
2021/07/13 08:51:00;;;;;;;23.15;7.13;;;;;;;27.78;33.86;93872.59;5070279;28;20048;-71
2021/07/13 08:53:26;;;;;;;10.07;6.30;;;;;;;27.85;34.59;93865.44;5089655;28;20491;-70
2021/07/13 08:55:55;;;;;;;13.05;6.75;;;;;;;27.97;35.34;93870.28;5089879;28;20157;-70
2021/07/13 08:58:22;;;;;;;20.90;6.95;;;;;;;28.11;35.19;93869.16;5089799;28;20098;-70
2021/07/13 09:00:48;;;;;;;13.55;6.90;;;;;;;28.21;34.25;93866.22;5089687;28;20024;-70
2021/07/13 09:03:19;;;;;;;16.67;7.05;;;;;;;28.31;34.24;93858.16;5068290;28;20518;-69
2021/07/13 09:05:50;;;;;;;15.35;7.85;;;;;;;28.36;34.01;93868.63;5090316;28;20473;-70
2021/07/13 09:08:25;;;;;;;12.43;7.15;;;;;;;28.35;34.04;93865.13;5093517;28;20032;-69
2021/07/13 09:11:08;;;;;;;9.57;6.70;;;;;;;28.33;33.24;93867.50;5074834;28;20024;-70
2021/07/13 09:13:39;;;;;;;16.02;6.85;;;;;;;28.36;33.61;93866.66;5074534;28;20023;-71
2021/07/13 09:16:07;;;;;;;13.23;7.25;;;;;;;28.45;33.65;93871.53;5092988;28;20047;-77
2021/07/13 09:18:47;;;;;;;10.77;7.40;;;;;;;28.59;33.78;93865.72;5092640;28;20027;-77
2021/07/13 09:21:20;;;;;;;14.43;7.13;;;;;;;28.66;33.07;93875.78;5092776;28;20035;-77
2021/07/13 09:24:04;;;;;;;13.25;7.13;;;;;;;28.75;33.14;93875.94;5092951;28;20082;-78
2021/07/13 09:26:42;;;;;;;9.65;7.13;;;;;;;28.79;33.01;93873.09;5092461;28;20032;-78
2021/07/13 09:29:24;;;;;;;12.80;7.43;;;;;;;28.85;32.63;93874.13;5092935;28;20024;-77
2021/07/13 09:31:50;;;;;;;12.60;6.65;;;;;;;28.90;33.82;93879.09;5074582;28;20114;-77
2021/07/13 09:34:19;;;;;;;15.90;8.07;;;;;;;29.05;34.15;93884.22;5092791;28;20123;-79
2021/07/13 09:36:54;;;;;;;11.55;6.75;;;;;;;29.20;33.76;93871.69;5092858;28;20024;-71
2021/07/13 09:39:24;;;;;;;14.05;7.47;;;;;;;29.28;32.62;93877.75;5074176;28;20016;-72
2021/07/13 09:41:53;;;;;;;15.07;6.80;;;;;;;29.36;32.51;93877.13;5092242;28;20473;-71
2021/07/13 09:44:23;;;;;;;16.80;7.15;;;;;;;29.43;31.65;93876.16;5071180;28;20021;-71
2021/07/13 09:46:50;;;;;;;11.02;7.82;;;;;;;29.47;32.30;93873.31;5091637;28;20032;-71
2021/07/13 09:49:21;;;;;;;10.40;6.82;;;;;;;29.54;30.95;93876.66;5089993;28;20035;-71
2021/07/13 09:51:54;;;;;;;26.35;7.38;;;;;;;29.55;30.45;93877.41;5092229;28;20109;-72
2021/07/13 09:54:33;;;;;;;11.77;6.93;;;;;;;29.49;30.92;93876.41;5073831;28;20402;-71
2021/07/13 09:57:01;;;;;;;11.82;6.95;;;;;;;29.39;31.82;93868.03;5091932;28;20368;-71
2021/07/13 09:59:26;;;;;;;14.25;7.47;;;;;;;29.35;30.90;93861.88;5092361;28;20024;-71
2021/07/13 10:01:52;;;;;;;14.05;7.47;;;;;;;29.44;31.50;93860.47;5092090;28;20024;-71
2021/07/13 10:04:18;;;;;;;13.15;7.38;;;;;;;29.47;31.81;93862.34;5091763;28;20396;-71
2021/07/13 10:06:46;;;;;;;14.93;6.75;;;;;;;29.59;31.68;93853.38;5091881;28;20104;-71
2021/07/13 10:09:12;;;;;;;14.70;7.68;;;;;;;29.49;30.90;93848.94;5072815;28;20035;-71
2021/07/13 10:11:42;;;;;;;17.08;7.43;;;;;;;29.63;30.30;93856.78;5072510;28;20032;-71
2021/07/13 10:14:09;;;;;;;12.02;6.88;;;;;;;29.78;28.76;93848.94;5091653;28;20103;-72
2021/07/13 10:16:34;;;;;;;18.33;6.88;;;;;;;29.73;29.60;93850.25;5091297;28;20439;-71
2021/07/13 10:19:00;;;;;;;17.10;6.93;;;;;;;29.82;28.88;93855.09;5091386;28;20067;-72
2021/07/13 10:21:26;;;;;;;9.95;6.43;;;;;;;29.85;29.31;93842.47;5091541;28;20475;-71
2021/07/13 10:23:53;;;;;;;10.77;6.28;;;;;;;29.88;28.70;93855.31;5070569;28;20012;-71
2021/07/13 10:26:52;;;;;;;15.93;7.03;;;;;;;29.98;30.79;93848.72;5073352;28;20032;-71
2021/07/13 10:29:33;;;;;;;10.68;5.53;;;;;;;30.12;30.44;93842.81;5058405;28;20525;-72
2021/07/13 10:32:24;;;;;;;12.60;6.55;;;;;;;30.30;29.62;93845.03;5091585;28;20035;-71
2021/07/13 10:34:53;;;;;;;11.10;6.22;;;;;;;30.43;27.72;93845.03;5064255;28;20028;-71
2021/07/13 10:37:40;;;;;;;10.95;5.97;;;;;;;30.56;28.75;93839.53;5091441;28;20024;-71
2021/07/13 10:40:11;;;;;;;15.18;6.65;;;;;;;30.60;28.31;93840.94;5073115;28;20090;-71
2021/07/13 10:42:39;;;;;;;9.55;5.80;;;;;;;30.67;27.33;93841.91;5071053;28;20035;-72
2021/07/13 10:45:14;;;;;;;10.93;5.75;;;;;;;30.68;26.78;93835.97;5091306;28;20525;-71
2021/07/13 10:48:05;;;;;;;9.02;5.30;;;;;;;30.83;26.53;93830.75;5087946;28;20031;-72
2021/07/13 10:50:32;;;;;;;11.10;5.85;;;;;;;30.88;26.90;93837.72;5091134;28;20028;-71
2021/07/13 10:53:02;;;;;;;7.60;5.40;;;;;;;30.92;26.84;93830.88;5091018;28;20050;-71
2021/07/13 10:55:31;;;;;;;8.10;6.07;;;;;;;30.99;26.56;93833.38;5073047;28;20024;-72
2021/07/13 10:58:12;;;;;;;11.07;5.80;;;;;;;30.98;25.10;93826.34;5091080;28;20024;-71
2021/07/13 11:00:49;;;;;;;14.15;6.05;;;;;;;30.96;26.87;93817.00;5073067;28;20125;-71
2021/07/13 11:03:27;;;;;;;9.68;5.50;;;;;;;31.07;27.45;93827.66;5090934;28;20115;-73
2021/07/13 11:05:59;;;;;;;7.20;6.40;;;;;;;31.18;26.29;93819.78;5088814;28;20142;-72
2021/07/13 11:08:52;;;;;;;12.95;5.97;;;;;;;31.37;25.23;93812.44;5091196;28;20043;-72
2021/07/13 11:11:20;;;;;;;10.73;5.43;;;;;;;31.42;27.03;93811.84;5090759;28;20463;-71
2021/07/13 11:13:52;;;;;;;9.13;5.68;;;;;;;31.55;25.62;93818.09;5070289;28;20063;-71
2021/07/13 11:16:32;;;;;;;11.00;6.10;;;;;;;31.57;26.12;93809.38;5090865;28;20099;-72
2021/07/13 11:18:59;;;;;;;10.75;7.10;;;;;;;31.57;25.23;93810.13;5090522;28;20085;-72
2021/07/13 11:21:38;;;;;;;9.43;5.68;;;;;;;31.62;24.86;93808.03;5072514;28;20433;-72
2021/07/13 11:24:03;;;;;;;16.52;5.60;;;;;;;31.67;25.36;93805.47;5072376;28;20437;-73
2021/07/13 11:26:29;;;;;;;9.70;6.07;;;;;;;31.62;24.24;93806.03;5072280;28;20027;-72
2021/07/13 11:29:00;;;;;;;11.98;5.25;;;;;;;31.63;24.49;93791.06;5089477;28;20101;-72
2021/07/13 11:31:30;;;;;;;11.48;6.15;;;;;;;31.62;24.02;93794.25;5070834;28;20029;-72